Terminal Aerodrome Forecast
Issued by NWS

Home | Current Version | Previous Version | Text Only | Print | Product List | Glossary On
Versions: 1 2 3 4 5 6 7 8 9 10 11 12 13 14 15 16 17
000
FTUS44 KTSA 222300
TAFXNA
TAF
KXNA 222320Z 2300/2324 13010KT P6SM OVC100
     FM230600 VRB03KT P6SM BKN050 PROB30 2309/2315 4SM -RA BR BKN030
     FM231500 16006KT P6SM BKN030 PROB30 2318/2324 3SM -TSRA BR
      BKN025CB=

USA.gov is the U.S. government's official web portal to all federal, state and local government web resources and services.